createdAt,value
2022-12-25T00:00:20.870Z,9.47
2022-12-25T00:02:50.530Z,8.50
2022-12-25T00:05:18.638Z,7.92
2022-12-25T00:07:46.550Z,7.75
2022-12-25T00:10:14.399Z,7.56
2022-12-25T00:12:42.241Z,7.47
2022-12-25T00:15:10.703Z,7.41
2022-12-25T00:17:38.577Z,7.41
2022-12-25T00:20:09.509Z,7.40
2022-12-25T00:22:37.448Z,7.41
2022-12-25T00:25:06.204Z,7.41
2022-12-25T00:27:34.796Z,7.35
2022-12-25T00:30:02.797Z,7.35
2022-12-25T00:32:36.094Z,7.37
2022-12-25T00:35:05.020Z,7.39
2022-12-25T00:37:34.396Z,7.43
2022-12-25T00:40:02.271Z,7.35
2022-12-25T00:42:30.125Z,7.21
2022-12-25T00:44:58.090Z,7.32
2022-12-25T00:47:26.054Z,7.35
2022-12-25T00:49:53.937Z,7.28
2022-12-25T00:52:21.792Z,7.26
2022-12-25T00:54:51.079Z,7.32
2022-12-25T00:57:19.783Z,7.25
2022-12-25T00:59:47.673Z,7.30
2022-12-25T01:02:25.264Z,7.30
2022-12-25T01:04:55.453Z,7.23
2022-12-25T01:07:25.276Z,7.16
2022-12-25T01:10:12.211Z,7.09
2022-12-25T01:12:42.312Z,7.18
2022-12-25T01:15:12.209Z,7.23
2022-12-25T01:17:40.103Z,7.27
2022-12-25T01:20:09.195Z,7.29
2022-12-25T01:22:37.110Z,7.36
2022-12-25T01:25:07.135Z,7.39
2022-12-25T01:27:35.010Z,7.27
2022-12-25T01:30:02.866Z,7.25
2022-12-25T01:32:30.677Z,7.23
2022-12-25T01:34:58.506Z,7.12
2022-12-25T01:37:26.815Z,7.21
2022-12-25T01:39:54.801Z,7.30
2022-12-25T01:42:24.700Z,7.53
2022-12-25T01:45:38.736Z,7.51
2022-12-25T01:48:12.821Z,7.56
2022-12-25T01:50:44.230Z,7.56
2022-12-25T01:53:12.885Z,7.57
2022-12-25T01:55:42.652Z,7.53
2022-12-25T01:58:11.959Z,7.57
2022-12-25T02:00:40.010Z,7.51
2022-12-25T02:03:08.053Z,7.41
2022-12-25T02:05:36.450Z,7.45
2022-12-25T02:08:09.453Z,7.56
2022-12-25T02:10:38.820Z,7.65
2022-12-25T02:13:07.801Z,7.62
2022-12-25T02:15:44.597Z,7.60
2022-12-25T02:18:20.668Z,7.58
2022-12-25T02:21:09.728Z,7.67
2022-12-25T02:23:56.611Z,7.61
2022-12-25T02:26:38.661Z,7.57
2022-12-25T02:29:17.332Z,7.52
2022-12-25T02:31:55.042Z,7.50
2022-12-25T02:34:33.770Z,7.45
2022-12-25T02:37:08.192Z,7.45
2022-12-25T02:40:00.539Z,7.57
2022-12-25T02:42:52.961Z,7.54
2022-12-25T02:45:44.725Z,7.50
2022-12-25T02:48:31.909Z,7.43
2022-12-25T02:54:35.401Z,7.69
2022-12-25T02:57:25.633Z,7.81
2022-12-25T03:00:14.821Z,7.65
2022-12-25T03:03:03.483Z,7.54
2022-12-25T03:05:52.061Z,7.50
2022-12-25T03:08:24.814Z,7.52
2022-12-25T03:11:18.487Z,7.60
2022-12-25T03:13:51.010Z,7.64
2022-12-25T03:16:37.038Z,7.65
2022-12-25T03:19:27.002Z,7.57
2022-12-25T03:22:14.203Z,7.60
2022-12-25T03:25:00.064Z,7.77
2022-12-25T03:27:32.791Z,7.74
2022-12-25T03:30:18.009Z,7.69
2022-12-25T03:32:58.600Z,7.88
2022-12-25T03:35:43.310Z,7.83
2022-12-25T03:38:40.220Z,7.62
2022-12-25T03:41:33.653Z,7.52
2022-12-25T03:44:27.205Z,7.61
2022-12-25T03:47:19.974Z,7.71
2022-12-25T03:50:11.595Z,7.67
2022-12-25T03:52:58.549Z,7.70
2022-12-25T03:55:44.836Z,7.71
2022-12-25T03:58:36.651Z,7.77
2022-12-25T04:01:18.508Z,7.91
2022-12-25T04:04:03.761Z,7.72
2022-12-25T04:06:48.084Z,7.56
2022-12-25T04:09:34.929Z,7.50
2022-12-25T04:12:20.262Z,7.68
2022-12-25T04:15:06.610Z,7.69
2022-12-25T04:17:52.051Z,7.67
2022-12-25T04:20:37.542Z,7.66
2022-12-25T04:23:23.437Z,7.60
2022-12-25T04:26:10.077Z,7.45
2022-12-25T04:28:55.255Z,7.42
2022-12-25T04:31:40.613Z,7.37
2022-12-25T04:34:34.461Z,7.38
2022-12-25T04:37:02.280Z,7.34
2022-12-25T04:39:30.152Z,7.29
2022-12-25T04:42:00.932Z,7.36
2022-12-25T04:44:28.829Z,7.31
2022-12-25T04:46:56.812Z,7.33
2022-12-25T04:49:24.646Z,7.29
2022-12-25T04:51:52.464Z,7.28
2022-12-25T04:54:20.291Z,7.22
2022-12-25T04:56:48.121Z,7.22
2022-12-25T04:59:18.408Z,7.22
2022-12-25T05:01:46.379Z,7.14
2022-12-25T05:04:14.405Z,7.10
2022-12-25T05:06:42.375Z,7.11
2022-12-25T05:09:11.114Z,7.16
2022-12-25T05:11:39.094Z,7.19
2022-12-25T05:14:06.963Z,7.13
2022-12-25T05:16:36.231Z,7.18
2022-12-25T05:19:04.124Z,7.22
2022-12-25T05:21:31.982Z,7.17
2022-12-25T05:23:59.930Z,7.10
2022-12-25T05:26:28.276Z,7.08
2022-12-25T05:28:56.186Z,7.00
2022-12-25T05:31:24.131Z,6.93
2022-12-25T05:33:53.717Z,6.95
2022-12-25T05:36:21.631Z,6.96
2022-12-25T05:38:49.525Z,6.89
2022-12-25T05:41:17.554Z,6.87
2022-12-25T05:43:45.493Z,6.87
2022-12-25T05:46:14.568Z,6.87
2022-12-25T05:48:42.792Z,6.84
2022-12-25T05:51:13.988Z,6.92
2022-12-25T05:53:42.699Z,6.92
2022-12-25T05:56:11.034Z,6.92
2022-12-25T05:58:40.136Z,6.83
2022-12-25T06:01:12.115Z,6.88
2022-12-25T06:03:40.154Z,6.85
2022-12-25T06:06:08.455Z,6.89
2022-12-25T06:08:38.263Z,6.84
2022-12-25T06:11:07.849Z,6.82
2022-12-25T06:13:36.791Z,6.76
2022-12-25T06:16:05.957Z,6.66
2022-12-25T06:18:36.579Z,6.70
2022-12-25T06:21:07.732Z,6.62
2022-12-25T06:23:37.280Z,6.58
2022-12-25T06:26:06.803Z,6.55
2022-12-25T06:28:34.658Z,6.58
2022-12-25T06:31:07.401Z,6.61
2022-12-25T06:33:35.844Z,6.62
2022-12-25T06:36:07.550Z,6.66
2022-12-25T06:38:35.777Z,6.72
2022-12-25T06:41:10.604Z,6.78
2022-12-25T06:43:39.263Z,6.82
2022-12-25T06:46:08.666Z,6.82
2022-12-25T06:48:37.268Z,6.77
2022-12-25T06:51:05.813Z,6.88
2022-12-25T06:53:40.292Z,6.97
2022-12-25T06:56:15.374Z,7.02
2022-12-25T06:58:44.349Z,7.01
2022-12-25T07:01:18.260Z,7.06
2022-12-25T07:03:47.639Z,7.05
2022-12-25T07:06:16.073Z,7.12
2022-12-25T07:08:43.887Z,7.18
2022-12-25T07:11:13.301Z,7.22
2022-12-25T07:13:41.083Z,7.23
2022-12-25T07:16:09.334Z,7.24
2022-12-25T07:18:37.273Z,7.32
2022-12-25T07:21:09.783Z,7.39
2022-12-25T07:23:37.727Z,7.56
2022-12-25T07:26:06.117Z,7.55
2022-12-25T07:28:36.260Z,7.50
2022-12-25T07:31:06.214Z,7.57
2022-12-25T07:33:34.936Z,7.64
2022-12-25T07:36:03.473Z,7.67
2022-12-25T07:38:31.636Z,7.66
2022-12-25T07:40:59.477Z,7.91
2022-12-25T07:43:27.696Z,9.82
2022-12-25T07:45:58.002Z,10.84
2022-12-25T07:48:26.157Z,11.36
2022-12-25T07:50:58.203Z,11.45
2022-12-25T07:53:26.463Z,11.50
2022-12-25T07:55:58.803Z,10.80
2022-12-25T07:58:26.942Z,10.35
2022-12-25T08:00:54.901Z,10.65
2022-12-25T08:03:24.302Z,10.75
2022-12-25T08:05:52.269Z,10.74
2022-12-25T08:08:20.170Z,11.09
2022-12-25T08:10:48.635Z,10.57
2022-12-25T08:13:16.428Z,10.52
2022-12-25T08:15:44.398Z,11.21
2022-12-25T08:18:13.145Z,11.41
2022-12-25T08:20:42.669Z,10.36
2022-12-25T08:23:10.583Z,9.70
2022-12-25T08:25:39.003Z,9.34
2022-12-25T08:28:06.793Z,9.09
2022-12-25T08:30:34.793Z,8.91
2022-12-25T08:33:02.780Z,8.84
2022-12-25T08:35:30.641Z,8.80
2022-12-25T08:37:59.788Z,8.85
2022-12-25T08:40:28.074Z,8.84
2022-12-25T08:42:57.491Z,8.84
2022-12-25T08:45:29.809Z,8.86
2022-12-25T08:48:00.683Z,8.86
2022-12-25T08:50:28.542Z,8.92
2022-12-25T08:52:56.352Z,9.02
2022-12-25T08:55:25.616Z,9.08
2022-12-25T08:57:54.293Z,9.19
2022-12-25T09:00:46.224Z,9.30
2022-12-25T09:03:14.095Z,9.44
2022-12-25T09:05:42.066Z,9.55
2022-12-25T09:08:09.988Z,9.62
2022-12-25T09:10:39.303Z,9.62
2022-12-25T09:13:10.680Z,9.71
2022-12-25T09:15:39.546Z,9.69
2022-12-25T09:18:07.741Z,9.81
2022-12-25T09:20:35.584Z,9.89
2022-12-25T09:23:07.219Z,10.06
2022-12-25T09:25:39.245Z,10.24
2022-12-25T09:28:07.223Z,10.37
2022-12-25T09:30:35.099Z,10.43
2022-12-25T09:33:02.884Z,10.48
2022-12-25T09:35:30.667Z,10.55
2022-12-25T09:37:58.593Z,10.67
2022-12-25T09:40:30.184Z,10.67
2022-12-25T09:43:00.177Z,10.78
2022-12-25T09:45:32.862Z,10.78
2022-12-25T09:48:01.067Z,10.87
2022-12-25T09:50:43.490Z,10.96
2022-12-25T09:53:16.915Z,11.01
2022-12-25T09:55:49.751Z,11.08
2022-12-25T09:58:18.917Z,11.17
2022-12-25T10:00:52.324Z,11.27
2022-12-25T10:03:37.529Z,11.44
2022-12-25T10:06:18.335Z,11.62
2022-12-25T10:09:11.332Z,11.75
2022-12-25T10:11:54.103Z,11.78
2022-12-25T10:14:28.386Z,11.78
2022-12-25T10:17:15.178Z,11.97
2022-12-25T10:19:52.891Z,12.09
2022-12-25T10:22:27.940Z,12.24
2022-12-25T10:24:59.073Z,12.22
2022-12-25T10:27:35.644Z,12.32
2022-12-25T10:30:14.405Z,12.44
2022-12-25T10:32:42.502Z,12.52
2022-12-25T10:35:13.153Z,12.56
2022-12-25T10:37:42.053Z,12.62
2022-12-25T10:40:27.646Z,12.56
2022-12-25T10:42:59.954Z,12.55
2022-12-25T10:45:29.096Z,12.50
2022-12-25T10:48:07.775Z,12.56
2022-12-25T10:50:43.407Z,12.62
2022-12-25T10:53:20.053Z,12.62
2022-12-25T10:55:59.354Z,12.70
2022-12-25T10:58:27.228Z,12.87
2022-12-25T11:01:00.028Z,12.81
2022-12-25T11:03:31.352Z,12.85
2022-12-25T11:06:00.080Z,12.91
2022-12-25T11:08:30.635Z,12.85
2022-12-25T11:11:05.991Z,13.07
2022-12-25T11:13:36.174Z,13.27
2022-12-25T11:16:09.428Z,13.35
2022-12-25T11:18:47.211Z,13.41
2022-12-25T11:21:20.088Z,13.53
2022-12-25T11:23:50.446Z,13.55
2022-12-25T11:26:19.547Z,13.60
2022-12-25T11:28:50.276Z,13.64
2022-12-25T11:31:21.595Z,13.78
2022-12-25T11:33:54.560Z,13.92
2022-12-25T11:36:30.832Z,14.04
2022-12-25T11:39:02.526Z,14.14
2022-12-25T11:41:35.209Z,14.13
2022-12-25T11:44:09.234Z,14.05
2022-12-25T11:46:42.480Z,13.89
2022-12-25T11:49:16.152Z,13.91
2022-12-25T11:51:47.609Z,14.14
2022-12-25T11:54:23.349Z,14.33
2022-12-25T11:56:51.390Z,14.39
2022-12-25T11:59:28.325Z,14.41
2022-12-25T12:02:01.216Z,14.42
2022-12-25T12:04:40.257Z,14.43
2022-12-25T12:07:18.175Z,14.53
2022-12-25T12:09:52.145Z,14.56
2022-12-25T12:12:27.170Z,14.56
2022-12-25T12:15:01.563Z,14.56
2022-12-25T12:17:31.035Z,14.72
2022-12-25T12:19:58.895Z,14.81
2022-12-25T12:22:29.348Z,14.99
2022-12-25T12:25:01.588Z,15.06
2022-12-25T12:27:35.843Z,15.32
2022-12-25T12:30:04.245Z,15.53
2022-12-25T12:32:46.132Z,15.52
2022-12-25T12:35:18.362Z,15.53
2022-12-25T12:37:48.359Z,15.40
2022-12-25T12:40:26.917Z,15.15
2022-12-25T12:42:54.949Z,14.87
2022-12-25T12:45:27.946Z,14.56
2022-12-25T12:47:57.737Z,14.39
2022-12-25T12:50:35.281Z,14.44
2022-12-25T12:53:29.480Z,14.57
2022-12-25T12:55:57.632Z,14.70
2022-12-25T12:58:30.949Z,14.79
2022-12-25T13:01:06.320Z,14.98
2022-12-25T13:03:46.756Z,15.19
2022-12-25T13:06:18.277Z,15.22
2022-12-25T13:08:57.676Z,15.34
2022-12-25T13:11:27.837Z,15.56
2022-12-25T13:13:58.488Z,15.54
2022-12-25T13:16:29.277Z,15.50
2022-12-25T13:18:59.402Z,15.40
2022-12-25T13:21:29.722Z,15.41
2022-12-25T13:24:00.076Z,15.53
2022-12-25T13:26:28.968Z,15.60
2022-12-25T13:28:57.106Z,15.58
2022-12-25T13:31:27.257Z,15.60
2022-12-25T13:34:00.475Z,15.70
2022-12-25T13:36:30.743Z,15.75
2022-12-25T13:39:00.308Z,15.85
2022-12-25T13:42:06.134Z,15.80
2022-12-25T13:44:43.552Z,15.76
2022-12-25T13:47:20.271Z,15.65
2022-12-25T13:49:51.230Z,15.68
2022-12-25T13:52:21.310Z,15.72
2022-12-25T13:55:00.568Z,15.63
2022-12-25T13:57:32.243Z,15.66
2022-12-25T14:00:00.809Z,15.64
2022-12-25T14:02:33.224Z,15.74
2022-12-25T14:05:02.792Z,15.69
2022-12-25T14:07:30.569Z,15.68
2022-12-25T14:10:01.273Z,15.70
2022-12-25T14:12:31.312Z,15.76
2022-12-25T14:15:00.177Z,15.64
2022-12-25T14:17:28.414Z,15.55
2022-12-25T14:20:07.940Z,15.51
2022-12-25T14:22:38.658Z,15.41
2022-12-25T14:25:16.002Z,15.29
2022-12-25T14:27:50.323Z,15.18
2022-12-25T14:30:18.635Z,15.06
2022-12-25T14:32:51.872Z,14.91
2022-12-25T14:35:23.619Z,14.66
2022-12-25T14:37:59.962Z,14.38
2022-12-25T14:40:31.406Z,14.20
2022-12-25T14:43:01.715Z,14.05
2022-12-25T14:45:33.084Z,13.94
2022-12-25T14:48:04.084Z,13.83
2022-12-25T14:50:36.453Z,13.70
2022-12-25T14:53:17.885Z,13.50
2022-12-25T14:55:49.093Z,13.24
2022-12-25T14:58:22.752Z,13.04
2022-12-25T15:00:56.194Z,12.82
2022-12-25T15:03:28.739Z,12.64
2022-12-25T15:06:01.321Z,12.44
2022-12-25T15:08:31.673Z,12.34
2022-12-25T15:11:02.277Z,12.15
2022-12-25T15:13:32.440Z,11.93
2022-12-25T15:16:04.964Z,11.80
2022-12-25T15:18:37.922Z,11.58
2022-12-25T15:21:06.021Z,11.51
2022-12-25T15:23:35.231Z,11.41
2022-12-25T15:26:03.065Z,11.28
2022-12-25T15:28:30.801Z,11.17
2022-12-25T15:30:58.660Z,11.08
2022-12-25T15:33:26.619Z,10.98
2022-12-25T15:35:54.402Z,10.94
2022-12-25T15:38:22.283Z,10.86
2022-12-25T15:40:51.453Z,10.80
2022-12-25T15:43:39.958Z,10.70
2022-12-25T15:46:06.967Z,10.56
2022-12-25T15:48:34.798Z,10.53
2022-12-25T15:51:03.077Z,10.49
2022-12-25T15:53:30.900Z,10.40
2022-12-25T15:56:00.110Z,10.45
2022-12-25T15:58:28.127Z,10.45
2022-12-25T16:00:55.919Z,10.32
2022-12-25T16:03:23.728Z,10.20
2022-12-25T16:05:51.518Z,10.11
2022-12-25T16:08:19.235Z,10.01
2022-12-25T16:10:47.233Z,9.90
2022-12-25T16:13:16.358Z,9.89
2022-12-25T16:15:45.069Z,9.80
2022-12-25T16:18:13.006Z,9.76
2022-12-25T16:20:40.772Z,9.73
2022-12-25T16:23:08.533Z,9.70
2022-12-25T16:25:36.298Z,9.66
2022-12-25T16:28:06.041Z,9.60
2022-12-25T16:30:35.399Z,9.49
2022-12-25T16:33:03.258Z,9.42
2022-12-25T16:35:31.656Z,9.35
2022-12-25T16:37:59.639Z,9.20
2022-12-25T16:40:27.734Z,9.14
2022-12-25T16:42:56.122Z,9.17
2022-12-25T16:45:24.165Z,9.15
2022-12-25T16:47:53.454Z,9.08
2022-12-25T16:50:22.356Z,9.03
2022-12-25T16:52:50.359Z,9.03
2022-12-25T16:55:18.288Z,9.07
2022-12-25T16:57:47.699Z,9.02
2022-12-25T17:00:16.462Z,9.01
2022-12-25T17:02:44.595Z,8.92
2022-12-25T17:05:13.977Z,8.87
2022-12-25T17:07:43.031Z,8.84
2022-12-25T17:10:12.075Z,8.82
2022-12-25T17:12:40.282Z,8.79
2022-12-25T17:15:09.463Z,8.69
2022-12-25T17:17:37.812Z,8.63
2022-12-25T17:20:07.195Z,8.52
2022-12-25T17:22:36.496Z,8.42
2022-12-25T17:25:04.496Z,8.26
2022-12-25T17:27:32.496Z,8.26
2022-12-25T17:30:00.398Z,8.25
2022-12-25T17:32:28.333Z,8.20
2022-12-25T17:34:56.224Z,8.11
2022-12-25T17:37:24.962Z,8.11
2022-12-25T17:39:54.094Z,8.11
2022-12-25T17:42:22.002Z,8.07
2022-12-25T17:44:49.745Z,8.09
2022-12-25T17:47:18.151Z,8.04
2022-12-25T17:49:45.978Z,8.04
2022-12-25T17:52:13.763Z,8.05
2022-12-25T17:54:41.652Z,8.05
2022-12-25T17:57:10.934Z,7.98
2022-12-25T17:59:38.723Z,8.00
2022-12-25T18:02:07.110Z,7.98
2022-12-25T18:04:35.064Z,8.06
2022-12-25T18:07:03.380Z,8.13
2022-12-25T18:09:31.308Z,8.12
2022-12-25T18:11:59.264Z,8.20
2022-12-25T18:14:28.854Z,8.25
2022-12-25T18:16:57.326Z,8.26
2022-12-25T18:19:25.577Z,8.31
2022-12-25T18:21:53.889Z,8.34
2022-12-25T18:24:21.822Z,8.42
2022-12-25T18:26:49.628Z,8.43
2022-12-25T18:29:18.626Z,8.47
2022-12-25T18:31:48.209Z,8.54
2022-12-25T18:34:16.944Z,8.54
2022-12-25T18:36:46.553Z,8.59
2022-12-25T18:39:14.689Z,8.63
2022-12-25T18:41:56.455Z,8.70
2022-12-25T18:44:24.240Z,8.67
2022-12-25T18:46:53.909Z,8.68
2022-12-25T18:49:22.060Z,8.68
2022-12-25T18:51:50.767Z,8.70
2022-12-25T18:54:19.335Z,8.73
2022-12-25T18:56:52.919Z,8.69
2022-12-25T18:59:21.788Z,8.65
2022-12-25T19:01:50.037Z,8.59
2022-12-25T19:04:19.534Z,8.55
2022-12-25T19:06:49.213Z,8.60
2022-12-25T19:09:17.637Z,8.50
2022-12-25T19:11:47.596Z,8.42
2022-12-25T19:14:16.170Z,8.49
2022-12-25T19:16:44.572Z,8.42
2022-12-25T19:19:13.033Z,8.37
2022-12-25T19:21:47.405Z,8.29
2022-12-25T19:24:15.275Z,8.33
2022-12-25T19:26:43.880Z,8.31
2022-12-25T19:29:12.639Z,8.37
2022-12-25T19:31:41.754Z,8.32
2022-12-25T19:34:11.472Z,8.36
2022-12-25T19:36:39.888Z,8.37
2022-12-25T19:39:11.651Z,8.31
2022-12-25T19:41:39.974Z,8.32
2022-12-25T19:44:10.724Z,8.20
2022-12-25T19:46:41.566Z,8.23
2022-12-25T19:49:16.132Z,8.24
2022-12-25T19:51:46.583Z,8.29
2022-12-25T19:54:18.864Z,8.32
2022-12-25T19:56:47.960Z,8.37
2022-12-25T19:59:16.692Z,8.44
2022-12-25T20:01:45.136Z,8.48
2022-12-25T20:04:13.441Z,8.52
2022-12-25T20:06:42.610Z,8.54
2022-12-25T20:09:13.023Z,8.63
2022-12-25T20:11:45.327Z,8.63
2022-12-25T20:14:16.114Z,8.82
2022-12-25T20:16:46.926Z,8.83
2022-12-25T20:19:15.878Z,8.90
2022-12-25T20:21:44.142Z,8.84
2022-12-25T20:24:12.419Z,8.72
2022-12-25T20:26:42.886Z,8.61
2022-12-25T20:29:12.615Z,8.60
2022-12-25T20:31:40.590Z,8.57
2022-12-25T20:34:12.716Z,8.57
2022-12-25T20:36:40.802Z,8.58
2022-12-25T20:39:13.143Z,8.57
2022-12-25T20:41:43.126Z,8.60
2022-12-25T20:44:13.230Z,8.62
2022-12-25T20:46:43.287Z,8.62
2022-12-25T20:49:11.348Z,8.64
2022-12-25T20:51:39.683Z,8.69
2022-12-25T20:54:13.097Z,8.70
2022-12-25T20:56:44.709Z,8.79
2022-12-25T20:59:12.682Z,8.83
2022-12-25T21:01:41.907Z,8.91
2022-12-25T21:04:14.553Z,8.91
2022-12-25T21:06:43.957Z,8.89
2022-12-25T21:09:11.919Z,8.88
2022-12-25T21:11:39.705Z,8.84
2022-12-25T21:14:09.533Z,8.91
2022-12-25T21:16:37.517Z,8.91
2022-12-25T21:19:05.380Z,8.97
2022-12-25T21:21:33.200Z,8.95
2022-12-25T21:24:01.000Z,8.96
2022-12-25T21:26:31.346Z,8.97
2022-12-25T21:29:02.131Z,9.00
2022-12-25T21:31:52.388Z,9.00
2022-12-25T21:34:19.285Z,8.98
2022-12-25T21:36:47.113Z,8.94
2022-12-25T21:39:15.549Z,8.89
2022-12-25T21:41:43.541Z,8.92
2022-12-25T21:44:12.201Z,8.91
2022-12-25T21:46:41.466Z,8.88
2022-12-25T21:49:10.427Z,8.81
2022-12-25T21:51:56.169Z,8.78
2022-12-25T21:54:24.436Z,8.68
2022-12-25T21:56:52.241Z,8.63
2022-12-25T21:59:22.562Z,8.54
2022-12-25T22:01:53.036Z,8.59
2022-12-25T22:04:22.840Z,8.56
2022-12-25T22:07:08.175Z,8.52
2022-12-25T22:09:36.131Z,8.46
2022-12-25T22:12:21.581Z,8.48
2022-12-25T22:14:57.100Z,8.43
2022-12-25T22:17:45.354Z,8.37
2022-12-25T22:20:15.492Z,8.39
2022-12-25T22:22:43.707Z,8.34
2022-12-25T22:25:12.267Z,8.36
2022-12-25T22:27:41.805Z,8.27
2022-12-25T22:30:13.456Z,8.30
2022-12-25T22:32:42.977Z,8.29
2022-12-25T22:35:12.377Z,8.29
2022-12-25T22:37:40.868Z,8.24
2022-12-25T22:40:11.378Z,8.17
2022-12-25T22:42:39.245Z,8.15
2022-12-25T22:45:07.903Z,8.11
2022-12-25T22:47:35.960Z,8.11
2022-12-25T22:50:05.700Z,8.11
2022-12-25T22:52:33.647Z,8.12
2022-12-25T22:55:02.491Z,8.10
2022-12-25T22:57:30.395Z,8.11
2022-12-25T22:59:58.293Z,8.11
2022-12-25T23:02:26.276Z,8.07
2022-12-25T23:04:54.232Z,8.08
2022-12-25T23:07:23.517Z,8.03
2022-12-25T23:09:53.213Z,8.03
2022-12-25T23:12:38.493Z,8.08
2022-12-25T23:15:07.561Z,8.02
2022-12-25T23:17:52.877Z,8.00
2022-12-25T23:20:38.702Z,7.96
2022-12-25T23:23:25.725Z,7.94
2022-12-25T23:26:08.740Z,7.91
2022-12-25T23:28:54.709Z,7.91
2022-12-25T23:31:26.390Z,7.93
2022-12-25T23:33:54.275Z,7.91
2022-12-25T23:36:22.401Z,7.89
2022-12-25T23:38:52.520Z,7.95
2022-12-25T23:41:20.390Z,7.90
2022-12-25T23:43:48.244Z,7.90
2022-12-25T23:46:16.415Z,7.89
2022-12-25T23:48:44.312Z,7.90
2022-12-25T23:51:12.275Z,7.87
2022-12-25T23:53:40.099Z,7.86
2022-12-25T23:56:10.552Z,7.80
2022-12-25T23:58:38.629Z,7.79
